createdAt,value
2023-04-13T00:00:54.746Z,54.58
2023-04-13T00:02:56.681Z,49.30
2023-04-13T00:04:58.261Z,49.28
2023-04-13T00:07:02.682Z,49.33
2023-04-13T00:09:04.246Z,47.53
2023-04-13T00:11:06.602Z,49.88
2023-04-13T00:13:09.362Z,55.70
2023-04-13T00:15:10.896Z,58.20
2023-04-13T00:17:12.324Z,59.58
2023-04-13T00:19:13.729Z,56.30
2023-04-13T00:21:17.205Z,62.22
2023-04-13T00:23:18.809Z,47.67
2023-04-13T00:25:20.326Z,46.88
2023-04-13T00:27:23.071Z,60.83
2023-04-13T00:29:24.460Z,49.42
2023-04-13T00:31:26.155Z,47.85
2023-04-13T00:33:27.636Z,51.08
2023-04-13T00:35:29.112Z,46.95
2023-04-13T00:37:31.021Z,39.65
2023-04-13T00:39:32.582Z,37.33
2023-04-13T00:41:33.974Z,35.95
2023-04-13T00:43:35.393Z,33.45
2023-04-13T00:45:39.180Z,37.08
2023-04-13T00:47:41.940Z,41.65
2023-04-13T00:49:44.175Z,38.17
2023-04-13T00:51:45.649Z,37.55
2023-04-13T00:53:47.281Z,40.00
2023-04-13T00:55:49.065Z,50.13
2023-04-13T00:57:52.475Z,51.47
2023-04-13T00:59:54.844Z,55.67
2023-04-13T01:02:02.308Z,55.47
2023-04-13T01:04:03.934Z,56.72
2023-04-13T01:06:05.685Z,61.05
2023-04-13T01:08:10.841Z,59.75
2023-04-13T01:10:21.377Z,55.10
2023-04-13T01:12:26.141Z,56.63
2023-04-13T01:14:31.406Z,54.65
2023-04-13T01:16:36.654Z,55.67
2023-04-13T01:18:40.242Z,57.17
2023-04-13T01:20:43.672Z,54.33
2023-04-13T01:22:50.883Z,55.60
2023-04-13T01:24:53.824Z,55.05
2023-04-13T01:27:07.654Z,51.85
2023-04-13T01:29:10.255Z,55.42
2023-04-13T01:31:12.639Z,50.22
2023-04-13T01:33:14.950Z,48.97
2023-04-13T01:35:19.053Z,46.65
2023-04-13T01:37:20.806Z,63.67
2023-04-13T01:39:22.304Z,59.70
2023-04-13T01:41:23.836Z,54.05
2023-04-13T01:43:26.178Z,51.35
2023-04-13T01:45:29.186Z,54.55
2023-04-13T01:47:31.711Z,47.13
2023-04-13T01:49:33.938Z,46.15
2023-04-13T01:51:36.308Z,50.40
2023-04-13T01:53:40.173Z,59.85
2023-04-13T01:55:42.105Z,56.05
2023-04-13T01:57:47.312Z,59.47
2023-04-13T01:59:48.799Z,52.92
2023-04-13T02:01:50.243Z,62.15
2023-04-13T02:03:52.520Z,79.75
2023-04-13T02:05:54.508Z,73.05
2023-04-13T02:07:55.943Z,67.40
2023-04-13T02:09:57.350Z,65.75
2023-04-13T02:11:58.761Z,59.88
2023-04-13T02:14:00.426Z,61.90
2023-04-13T02:16:02.027Z,58.67
2023-04-13T02:18:06.945Z,67.40
2023-04-13T02:20:12.125Z,80.28
2023-04-13T02:22:13.590Z,69.50
2023-04-13T02:24:15.049Z,67.07
2023-04-13T02:26:16.556Z,67.72
2023-04-13T02:28:18.318Z,62.90
2023-04-13T02:30:19.899Z,67.03
2023-04-13T02:32:21.382Z,69.03
2023-04-13T02:34:22.963Z,93.88
2023-04-13T02:36:25.009Z,72.07
2023-04-13T02:38:27.498Z,70.25
2023-04-13T02:40:29.311Z,71.65
2023-04-13T02:42:30.702Z,67.43
2023-04-13T02:44:32.186Z,63.60
2023-04-13T02:46:34.200Z,58.70
2023-04-13T02:48:36.604Z,64.85
2023-04-13T02:50:38.108Z,60.38
2023-04-13T02:52:39.488Z,60.05
2023-04-13T02:54:41.235Z,60.42
2023-04-13T02:56:44.826Z,59.17
2023-04-13T02:58:46.213Z,60.83
2023-04-13T03:00:48.729Z,58.30
2023-04-13T03:02:50.262Z,53.00
2023-04-13T03:04:52.002Z,57.72
2023-04-13T03:06:54.485Z,78.53
2023-04-13T03:08:55.968Z,66.93
2023-04-13T03:10:57.434Z,66.90
2023-04-13T03:12:59.093Z,68.70
2023-04-13T03:15:05.020Z,68.97
2023-04-13T03:17:08.019Z,66.40
2023-04-13T03:19:10.248Z,61.38
2023-04-13T03:21:12.840Z,59.10
2023-04-13T03:23:14.898Z,60.75
2023-04-13T03:25:16.662Z,64.38
2023-04-13T03:27:18.569Z,66.05
2023-04-13T03:29:19.970Z,63.22
2023-04-13T03:31:22.441Z,58.47
2023-04-13T03:33:23.971Z,58.72
2023-04-13T03:35:25.350Z,57.42
2023-04-13T03:37:32.546Z,54.08
2023-04-13T03:39:34.037Z,79.10
2023-04-13T03:41:35.608Z,124.03
2023-04-13T03:43:37.064Z,97.38
2023-04-13T03:45:38.475Z,97.57
2023-04-13T03:47:40.018Z,145.60
2023-04-13T03:49:41.501Z,104.88
2023-04-13T03:51:43.178Z,96.85
2023-04-13T03:53:44.598Z,94.85
2023-04-13T03:55:46.149Z,97.68
2023-04-13T03:57:47.739Z,87.10
2023-04-13T03:59:49.233Z,73.03
2023-04-13T04:01:50.693Z,70.47
2023-04-13T04:03:55.987Z,68.15
2023-04-13T04:05:57.674Z,64.55
2023-04-13T04:07:59.165Z,53.10
2023-04-13T04:10:00.618Z,51.03
2023-04-13T04:12:02.198Z,55.47
2023-04-13T04:14:03.631Z,63.13
2023-04-13T04:16:07.322Z,75.93
2023-04-13T04:18:09.682Z,52.55
2023-04-13T04:20:11.328Z,60.60
2023-04-13T04:22:14.099Z,54.63
2023-04-13T04:24:22.784Z,60.90
2023-04-13T04:26:25.802Z,62.75
2023-04-13T04:28:30.555Z,62.72
2023-04-13T04:30:34.047Z,58.72
2023-04-13T04:32:36.218Z,44.65
2023-04-13T04:34:38.633Z,38.10
2023-04-13T04:36:41.901Z,42.92
2023-04-13T04:38:43.315Z,45.38
2023-04-13T04:40:45.376Z,51.75
2023-04-13T04:42:46.860Z,49.88
2023-04-13T04:44:50.343Z,46.20
2023-04-13T04:46:52.572Z,43.03
2023-04-13T04:48:54.388Z,44.00
2023-04-13T04:50:56.134Z,48.08
2023-04-13T04:52:57.779Z,41.00
2023-04-13T04:54:59.167Z,44.03
2023-04-13T04:57:02.385Z,46.45
2023-04-13T04:59:03.844Z,39.83
2023-04-13T05:01:05.385Z,40.47
2023-04-13T05:03:08.329Z,40.78
2023-04-13T05:05:10.306Z,41.75
2023-04-13T05:07:16.509Z,49.60
2023-04-13T05:09:19.660Z,47.22
2023-04-13T05:11:21.047Z,46.40
2023-04-13T05:13:22.757Z,47.40
2023-04-13T05:15:24.293Z,45.13
2023-04-13T05:17:26.232Z,44.20
2023-04-13T05:19:27.875Z,42.67
2023-04-13T05:21:29.309Z,44.70
2023-04-13T05:23:30.710Z,44.30
2023-04-13T05:25:32.490Z,41.33
2023-04-13T05:27:33.897Z,45.70
2023-04-13T05:29:35.733Z,43.47
2023-04-13T05:31:37.385Z,45.72
2023-04-13T05:33:38.834Z,54.28
2023-04-13T05:35:40.344Z,59.25
2023-04-13T05:37:41.859Z,60.58
2023-04-13T05:39:43.593Z,51.83
2023-04-13T05:41:45.034Z,55.83
2023-04-13T05:43:46.670Z,57.40
2023-04-13T05:45:48.240Z,55.33
2023-04-13T05:47:50.317Z,53.95
2023-04-13T05:49:52.805Z,48.95
2023-04-13T05:51:54.805Z,50.38
2023-04-13T05:53:56.730Z,46.97
2023-04-13T05:55:58.207Z,38.97
2023-04-13T05:58:00.819Z,40.40
2023-04-13T06:00:02.346Z,39.90
2023-04-13T06:02:03.852Z,38.00
2023-04-13T06:04:05.996Z,42.08
2023-04-13T06:06:08.669Z,41.85
2023-04-13T06:08:10.650Z,40.60
2023-04-13T06:10:12.779Z,39.13
2023-04-13T06:12:15.973Z,37.75
2023-04-13T06:14:17.768Z,33.05
2023-04-13T06:16:19.848Z,27.73
2023-04-13T06:18:21.291Z,32.38
2023-04-13T06:20:22.825Z,32.85
2023-04-13T06:22:24.292Z,29.42
2023-04-13T06:24:26.135Z,37.17
2023-04-13T06:26:28.285Z,34.22
2023-04-13T06:28:31.525Z,32.47
2023-04-13T06:30:33.428Z,31.90
2023-04-13T06:32:34.974Z,29.10
2023-04-13T06:34:36.925Z,30.15
2023-04-13T06:36:40.598Z,28.80
2023-04-13T06:38:42.104Z,31.77
2023-04-13T06:40:43.560Z,32.85
2023-04-13T06:42:45.061Z,31.02
2023-04-13T06:44:46.460Z,29.13
2023-04-13T06:46:47.969Z,28.38
2023-04-13T06:48:49.952Z,22.58
2023-04-13T06:50:52.345Z,22.90
2023-04-13T06:52:53.806Z,21.73
2023-04-13T06:54:55.186Z,22.77
2023-04-13T06:56:57.173Z,24.40
2023-04-13T06:59:02.644Z,23.40
2023-04-13T07:01:04.765Z,20.88
2023-04-13T07:03:06.530Z,21.25
2023-04-13T07:05:08.771Z,21.90
2023-04-13T07:07:11.076Z,23.23
2023-04-13T07:09:12.498Z,22.65
2023-04-13T07:11:14.587Z,22.08
2023-04-13T07:13:15.985Z,22.42
2023-04-13T07:15:18.155Z,22.60
2023-04-13T07:17:19.855Z,21.75
2023-04-13T07:19:23.768Z,23.30
2023-04-13T07:21:25.206Z,21.00
2023-04-13T07:23:26.692Z,18.77
2023-04-13T07:25:34.517Z,18.77
2023-04-13T07:27:36.097Z,18.80
2023-04-13T07:29:37.682Z,27.38
2023-04-13T07:31:39.748Z,21.05
2023-04-13T07:33:41.203Z,18.42
2023-04-13T07:35:42.948Z,21.13
2023-04-13T07:37:44.608Z,21.85
2023-04-13T07:39:46.029Z,20.08
2023-04-13T07:41:47.467Z,20.77
2023-04-13T07:43:48.976Z,37.45
2023-04-13T07:45:50.612Z,24.05
2023-04-13T07:47:54.438Z,21.80
2023-04-13T07:49:56.657Z,21.58
2023-04-13T07:51:58.462Z,20.38
2023-04-13T07:53:59.956Z,23.60
2023-04-13T07:56:02.898Z,20.50
2023-04-13T07:58:04.313Z,17.70
2023-04-13T08:00:06.409Z,19.20
2023-04-13T08:02:07.912Z,19.10
2023-04-13T08:04:09.506Z,19.05
2023-04-13T08:06:11.564Z,18.33
2023-04-13T08:08:13.128Z,18.45
2023-04-13T08:10:14.644Z,17.35
2023-04-13T08:12:17.042Z,15.75
2023-04-13T08:14:18.460Z,20.25
2023-04-13T08:16:20.091Z,20.95
2023-04-13T08:18:21.580Z,16.95
2023-04-13T08:20:23.126Z,17.83
2023-04-13T08:22:24.720Z,17.58
2023-04-13T08:24:27.623Z,16.08
2023-04-13T08:26:29.129Z,16.88
2023-04-13T08:28:32.510Z,15.43
2023-04-13T08:30:34.359Z,17.65
2023-04-13T08:32:35.934Z,14.77
2023-04-13T08:34:38.348Z,13.13
2023-04-13T08:36:40.108Z,12.45
2023-04-13T08:38:47.646Z,12.25
2023-04-13T08:40:50.197Z,11.13
2023-04-13T08:42:52.901Z,11.88
2023-04-13T08:44:58.135Z,11.45
2023-04-13T08:46:59.770Z,10.55
2023-04-13T08:49:03.856Z,10.95
2023-04-13T08:51:11.455Z,11.13
2023-04-13T08:53:16.511Z,11.90
2023-04-13T08:55:18.091Z,10.38
2023-04-13T08:57:20.137Z,10.95
2023-04-13T08:59:22.861Z,10.85
2023-04-13T09:01:24.784Z,10.43
2023-04-13T09:03:29.970Z,10.80
2023-04-13T09:05:31.726Z,8.57
2023-04-13T09:07:34.763Z,8.05
2023-04-13T09:09:38.216Z,7.78
2023-04-13T09:11:40.234Z,8.20
2023-04-13T09:13:48.336Z,8.73
2023-04-13T09:15:49.774Z,8.45
2023-04-13T09:17:51.305Z,8.75
2023-04-13T09:19:53.334Z,7.85
2023-04-13T09:21:55.342Z,7.78
2023-04-13T09:23:57.577Z,7.13
2023-04-13T09:26:06.122Z,7.45
2023-04-13T09:28:08.859Z,7.60
2023-04-13T09:30:11.387Z,7.07
2023-04-13T09:32:18.729Z,7.30
2023-04-13T09:34:29.405Z,6.20
2023-04-13T09:36:30.835Z,5.80
2023-04-13T09:38:32.875Z,6.35
2023-04-13T09:40:44.034Z,6.05
2023-04-13T09:43:09.411Z,6.32
2023-04-13T09:45:13.597Z,5.80
2023-04-13T09:47:15.037Z,6.45
2023-04-13T09:49:16.537Z,5.68
2023-04-13T09:51:18.641Z,5.25
2023-04-13T09:53:20.046Z,5.05
2023-04-13T09:55:21.523Z,9.10
2023-04-13T09:57:37.805Z,5.45
2023-04-13T09:59:39.290Z,5.72
2023-04-13T10:01:41.206Z,5.68
2023-04-13T10:03:43.356Z,4.53
2023-04-13T10:05:58.926Z,4.72
2023-04-13T10:08:01.714Z,3.72
2023-04-13T10:10:03.787Z,3.42
2023-04-13T10:12:06.716Z,2.78
2023-04-13T10:14:11.980Z,3.20
2023-04-13T10:16:27.170Z,3.85
2023-04-13T10:18:47.834Z,3.30
2023-04-13T10:20:50.884Z,3.60
2023-04-13T10:22:52.845Z,4.85
2023-04-13T10:24:54.301Z,3.33
2023-04-13T10:26:58.586Z,4.13
2023-04-13T10:29:01.586Z,4.00
2023-04-13T10:31:05.714Z,3.80
2023-04-13T10:33:09.797Z,3.78
2023-04-13T10:35:12.365Z,3.33
2023-04-13T10:37:21.109Z,3.97
2023-04-13T10:39:25.775Z,3.60
2023-04-13T10:41:28.566Z,3.78
2023-04-13T10:43:31.458Z,3.45
2023-04-13T10:45:36.017Z,4.70
2023-04-13T10:47:37.635Z,3.38
2023-04-13T10:49:39.099Z,3.70
2023-04-13T10:51:41.186Z,3.38
2023-04-13T10:53:42.674Z,3.72
2023-04-13T10:55:44.071Z,3.47
2023-04-13T10:57:45.509Z,3.45
2023-04-13T10:59:59.326Z,3.35
2023-04-13T11:02:01.830Z,3.20
2023-04-13T11:04:07.027Z,3.67
2023-04-13T11:06:11.822Z,4.00
2023-04-13T11:08:20.849Z,5.78
2023-04-13T11:10:27.289Z,3.33
2023-04-13T11:12:28.783Z,3.40
2023-04-13T11:14:30.418Z,4.25
2023-04-13T11:16:31.923Z,4.85
2023-04-13T11:18:33.561Z,5.28
2023-04-13T11:20:35.045Z,4.47
2023-04-13T11:22:36.561Z,4.45
2023-04-13T11:24:38.028Z,4.85
2023-04-13T11:26:39.980Z,4.03
2023-04-13T11:28:43.892Z,4.20
2023-04-13T11:30:56.324Z,5.78
2023-04-13T11:33:01.314Z,4.20
2023-04-13T11:35:10.138Z,3.38
2023-04-13T11:37:11.806Z,4.28
2023-04-13T11:39:14.841Z,4.63
2023-04-13T11:41:17.504Z,4.85
2023-04-13T11:43:19.469Z,7.70
2023-04-13T11:45:22.441Z,4.03
2023-04-13T11:47:23.856Z,3.28
2023-04-13T11:49:25.402Z,5.55
2023-04-13T11:51:26.980Z,6.65
2023-04-13T11:53:28.686Z,7.53
2023-04-13T11:55:34.778Z,7.80
2023-04-13T11:57:44.969Z,6.15
2023-04-13T11:59:48.869Z,9.55
2023-04-13T12:01:58.113Z,7.97
2023-04-13T12:04:15.024Z,4.22
2023-04-13T12:06:17.842Z,4.10
2023-04-13T12:08:21.658Z,4.95
2023-04-13T12:10:25.629Z,5.18
2023-04-13T12:14:57.475Z,4.65
2023-04-13T12:19:13.326Z,6.13
2023-04-13T12:21:16.567Z,3.25
2023-04-13T12:23:23.087Z,3.20
2023-04-13T12:25:26.038Z,3.25
2023-04-13T12:27:39.520Z,3.15
2023-04-13T12:29:41.125Z,2.83
2023-04-13T12:31:44.476Z,3.00
2023-04-13T12:33:45.991Z,3.05
2023-04-13T12:35:47.433Z,3.33
2023-04-13T12:37:50.200Z,2.92
2023-04-13T12:39:51.945Z,3.15
2023-04-13T12:41:53.438Z,3.40
2023-04-13T12:43:54.884Z,3.55
2023-04-13T12:45:56.468Z,3.60
2023-04-13T12:47:57.969Z,3.63
2023-04-13T12:49:59.754Z,2.90
2023-04-13T12:52:01.181Z,3.22
2023-04-13T12:54:02.623Z,4.00
2023-04-13T12:56:04.159Z,4.10
2023-04-13T12:58:05.704Z,3.88
2023-04-13T13:00:10.730Z,6.05
2023-04-13T13:02:12.433Z,4.00
2023-04-13T13:04:14.075Z,3.53
2023-04-13T13:06:15.687Z,3.80
2023-04-13T13:08:17.217Z,3.45
2023-04-13T13:10:29.089Z,3.25
2023-04-13T13:12:31.643Z,3.38
2023-04-13T13:14:33.101Z,3.60
2023-04-13T13:16:34.742Z,4.47
2023-04-13T13:19:00.795Z,3.88
2023-04-13T13:20:57.997Z,3.65
2023-04-13T13:22:59.441Z,3.50
2023-04-13T13:25:01.632Z,3.35
2023-04-13T13:27:34.197Z,4.38
2023-04-13T13:29:25.399Z,3.13
2023-04-13T13:31:27.550Z,3.17
2023-04-13T13:33:29.018Z,3.50
2023-04-13T13:35:33.690Z,3.72
2023-04-13T13:37:35.198Z,3.65
2023-04-13T13:39:37.570Z,3.28
2023-04-13T13:41:39.022Z,3.13
2023-04-13T13:43:40.467Z,3.30
2023-04-13T13:45:41.971Z,3.40
2023-04-13T13:47:43.551Z,3.30
2023-04-13T13:49:45.209Z,3.63
2023-04-13T13:51:46.629Z,2.78
2023-04-13T13:53:48.242Z,3.15
2023-04-13T13:55:52.714Z,3.30
2023-04-13T13:57:54.293Z,2.95
2023-04-13T13:59:55.819Z,3.13
2023-04-13T14:01:58.796Z,2.92
2023-04-13T14:04:00.553Z,2.65
2023-04-13T14:06:02.427Z,2.50
2023-04-13T14:08:04.050Z,2.67
2023-04-13T14:10:05.874Z,2.75
2023-04-13T14:12:08.043Z,3.13
2023-04-13T14:14:20.451Z,4.90
2023-04-13T14:16:23.276Z,4.15
2023-04-13T14:18:24.780Z,3.85
2023-04-13T14:20:26.291Z,5.40
2023-04-13T14:22:27.717Z,3.53
2023-04-13T14:24:29.252Z,3.08
2023-04-13T14:26:30.872Z,3.17
2023-04-13T14:28:32.796Z,3.42
2023-04-13T14:30:34.422Z,3.40
2023-04-13T14:32:35.960Z,3.30
2023-04-13T14:34:37.822Z,4.85
2023-04-13T14:36:39.271Z,5.05
2023-04-13T14:38:40.850Z,4.93
2023-04-13T14:40:42.357Z,3.90
2023-04-13T14:42:43.844Z,3.70
2023-04-13T14:44:45.609Z,3.92
2023-04-13T14:46:47.080Z,3.72
2023-04-13T14:48:48.594Z,3.53
2023-04-13T14:50:50.060Z,4.25
2023-04-13T14:52:52.397Z,3.90
2023-04-13T14:54:57.189Z,3.85
2023-04-13T14:56:58.691Z,4.32
2023-04-13T14:59:00.388Z,4.43
2023-04-13T15:01:02.167Z,3.65
2023-04-13T15:03:04.315Z,4.18
2023-04-13T15:05:09.133Z,5.28
2023-04-13T15:07:10.960Z,5.28
2023-04-13T15:09:13.221Z,59.10
2023-04-13T15:11:14.630Z,70.05
2023-04-13T15:13:16.530Z,15.25
2023-04-13T15:15:18.025Z,9.65
2023-04-13T15:17:19.419Z,6.90
2023-04-13T15:19:21.130Z,10.52
2023-04-13T15:21:22.616Z,5.55
2023-04-13T15:23:24.089Z,4.70
2023-04-13T15:25:25.881Z,9.27
2023-04-13T15:27:28.063Z,15.63
2023-04-13T15:29:29.651Z,30.73
2023-04-13T15:31:32.186Z,18.23
2023-04-13T15:33:33.671Z,23.90
2023-04-13T15:35:35.961Z,7.15
2023-04-13T15:37:37.393Z,7.10
2023-04-13T15:39:38.993Z,8.00
2023-04-13T15:41:40.428Z,35.13
2023-04-13T15:43:43.666Z,15.13
2023-04-13T15:45:46.992Z,8.95
2023-04-13T15:47:48.539Z,8.90
2023-04-13T15:49:50.003Z,10.88
2023-04-13T15:51:51.708Z,10.00
2023-04-13T15:53:53.111Z,7.95
2023-04-13T15:55:54.765Z,8.52
2023-04-13T15:57:57.354Z,67.18
2023-04-13T15:59:58.982Z,9.98
2023-04-13T16:02:00.662Z,11.57
2023-04-13T16:04:02.251Z,89.30
2023-04-13T16:06:03.847Z,111.75
2023-04-13T16:08:05.266Z,146.77
2023-04-13T16:10:07.197Z,243.07
2023-04-13T16:12:11.075Z,106.22
2023-04-13T16:14:12.639Z,338.27
2023-04-13T16:16:14.772Z,171.02
2023-04-13T16:18:16.803Z,137.52
2023-04-13T16:20:19.481Z,143.90
2023-04-13T16:22:21.024Z,95.20
2023-04-13T16:24:23.017Z,345.25
2023-04-13T16:26:24.661Z,362.17
2023-04-13T16:28:27.154Z,248.18
2023-04-13T16:30:28.587Z,119.82
2023-04-13T16:32:30.453Z,148.35
2023-04-13T16:34:31.892Z,71.82
2023-04-13T16:36:33.515Z,96.75
2023-04-13T16:38:35.378Z,84.43
2023-04-13T16:40:37.053Z,77.75
2023-04-13T16:42:39.286Z,67.07
2023-04-13T16:44:40.693Z,22.15
2023-04-13T16:46:42.241Z,67.45
2023-04-13T16:48:44.089Z,91.78
2023-04-13T16:50:45.496Z,138.20
2023-04-13T16:52:47.153Z,55.63
2023-04-13T16:54:48.568Z,57.28
2023-04-13T16:56:49.949Z,107.30
2023-04-13T16:58:51.391Z,79.35
2023-04-13T17:00:52.856Z,79.03
2023-04-13T17:02:54.606Z,73.80
2023-04-13T17:04:57.135Z,70.00
2023-04-13T17:07:04.455Z,58.05
2023-04-13T17:09:05.987Z,28.42
2023-04-13T17:11:07.992Z,12.85
2023-04-13T17:13:09.603Z,12.63
2023-04-13T17:15:11.056Z,18.63
2023-04-13T17:17:12.603Z,20.27
2023-04-13T17:19:15.590Z,49.53
2023-04-13T17:21:17.317Z,41.75
2023-04-13T17:23:18.917Z,24.42
2023-04-13T17:25:20.735Z,35.70
2023-04-13T17:27:22.234Z,31.10
2023-04-13T17:29:23.750Z,97.03
2023-04-13T17:31:25.213Z,35.95
2023-04-13T17:33:28.572Z,30.45
2023-04-13T17:35:30.143Z,27.42
2023-04-13T17:37:31.788Z,26.17
2023-04-13T17:39:35.103Z,44.22
2023-04-13T17:41:36.606Z,39.95
2023-04-13T17:43:38.565Z,62.42
2023-04-13T17:45:40.743Z,52.17
2023-04-13T17:47:42.414Z,47.58
2023-04-13T17:49:44.752Z,44.72
2023-04-13T17:51:49.352Z,43.42
2023-04-13T17:53:51.238Z,35.65
2023-04-13T17:55:52.645Z,37.38
2023-04-13T17:57:54.056Z,88.88
2023-04-13T17:59:55.866Z,43.28
2023-04-13T18:01:58.649Z,39.42
2023-04-13T18:04:00.424Z,32.83
2023-04-13T18:06:02.051Z,46.03
2023-04-13T18:08:03.520Z,41.45
2023-04-13T18:10:05.818Z,53.50
2023-04-13T18:12:07.261Z,36.20
2023-04-13T18:14:13.147Z,40.22
2023-04-13T18:16:14.915Z,84.55
2023-04-13T18:18:24.121Z,33.55
2023-04-13T18:20:25.673Z,37.92
2023-04-13T18:22:27.179Z,60.08
2023-04-13T18:24:28.618Z,75.80
2023-04-13T18:26:30.060Z,47.15
2023-04-13T18:28:34.304Z,73.85
2023-04-13T18:30:35.862Z,44.28
2023-04-13T18:32:37.566Z,53.83
2023-04-13T18:34:42.208Z,55.75
2023-04-13T18:36:44.728Z,39.25
2023-04-13T18:38:46.619Z,52.03
2023-04-13T18:40:49.263Z,362.00
2023-04-13T18:42:50.932Z,89.30
2023-04-13T18:44:52.485Z,59.42
2023-04-13T18:46:54.009Z,254.68
2023-04-13T18:48:55.515Z,51.83
2023-04-13T18:50:56.975Z,86.55
2023-04-13T18:52:58.432Z,76.78
2023-04-13T18:54:59.874Z,64.85
2023-04-13T18:57:01.394Z,86.72
2023-04-13T18:59:02.888Z,98.43
2023-04-13T19:01:04.302Z,59.03
2023-04-13T19:03:06.013Z,105.53
2023-04-13T19:05:07.712Z,61.70
2023-04-13T19:07:09.380Z,76.20
2023-04-13T19:09:10.793Z,73.97
2023-04-13T19:11:13.779Z,74.65
2023-04-13T19:13:15.615Z,58.60
2023-04-13T19:15:18.001Z,47.80
2023-04-13T19:17:20.967Z,43.75
2023-04-13T19:19:22.644Z,70.32
2023-04-13T19:21:24.315Z,47.63
2023-04-13T19:23:26.600Z,64.15
2023-04-13T19:25:28.028Z,51.97
2023-04-13T19:27:29.889Z,50.67
2023-04-13T19:29:33.446Z,39.45
2023-04-13T19:31:36.073Z,51.00
2023-04-13T19:33:38.231Z,40.95
2023-04-13T19:35:39.654Z,55.13
2023-04-13T19:37:41.840Z,52.28
2023-04-13T19:39:43.647Z,50.25
2023-04-13T19:41:45.162Z,53.75
2023-04-13T19:43:47.490Z,61.08
2023-04-13T19:45:48.997Z,49.25
2023-04-13T19:47:50.725Z,57.78
2023-04-13T19:49:52.144Z,50.30
2023-04-13T19:51:53.631Z,68.25
2023-04-13T19:53:56.014Z,41.47
2023-04-13T19:55:57.496Z,48.53
2023-04-13T19:57:58.932Z,49.00
2023-04-13T20:00:00.339Z,48.40
2023-04-13T20:02:01.876Z,44.80
2023-04-13T20:04:04.677Z,40.60
2023-04-13T20:06:06.641Z,42.13
2023-04-13T20:08:08.062Z,41.78
2023-04-13T20:10:10.957Z,45.38
2023-04-13T20:12:12.583Z,41.58
2023-04-13T20:14:14.054Z,48.78
2023-04-13T20:16:15.633Z,46.38
2023-04-13T20:18:17.339Z,56.20
2023-04-13T20:20:21.102Z,54.65
2023-04-13T20:22:26.184Z,63.33
2023-04-13T20:24:27.733Z,54.30
2023-04-13T20:26:32.155Z,45.80
2023-04-13T20:28:33.568Z,66.20
2023-04-13T20:30:35.047Z,42.58
2023-04-13T20:32:36.537Z,45.33
2023-04-13T20:34:38.057Z,41.13
2023-04-13T20:36:39.554Z,41.10
2023-04-13T20:38:42.978Z,42.05
2023-04-13T20:40:45.711Z,41.63
2023-04-13T20:42:47.191Z,38.90
2023-04-13T20:44:49.243Z,39.53
2023-04-13T20:46:54.548Z,40.00
2023-04-13T20:48:56.340Z,40.65
2023-04-13T20:50:57.880Z,35.67
2023-04-13T20:52:59.833Z,38.30
2023-04-13T20:55:01.246Z,36.35
2023-04-13T20:57:02.717Z,38.45
2023-04-13T20:59:04.196Z,39.45
2023-04-13T21:01:05.650Z,37.70
2023-04-13T21:03:08.899Z,35.47
2023-04-13T21:05:10.871Z,32.05
2023-04-13T21:07:13.902Z,33.60
2023-04-13T21:09:15.707Z,31.23
2023-04-13T21:11:17.167Z,29.35
2023-04-13T21:13:18.790Z,28.52
2023-04-13T21:15:20.302Z,28.60
2023-04-13T21:17:21.809Z,28.30
2023-04-13T21:19:25.119Z,26.75
2023-04-13T21:21:27.729Z,27.90
2023-04-13T21:23:29.200Z,27.63
2023-04-13T21:25:30.756Z,28.10
2023-04-13T21:27:32.473Z,38.95
2023-04-13T21:29:33.997Z,41.45
2023-04-13T21:31:35.462Z,30.52
2023-04-13T21:33:36.944Z,27.95
2023-04-13T21:35:38.426Z,28.67
2023-04-13T21:37:39.853Z,28.92
2023-04-13T21:39:41.360Z,32.08
2023-04-13T21:41:42.744Z,33.42
2023-04-13T21:43:44.392Z,40.95
2023-04-13T21:45:46.113Z,34.75
2023-04-13T21:47:47.755Z,45.33
2023-04-13T21:49:49.239Z,41.80
2023-04-13T21:51:50.693Z,37.80
2023-04-13T21:53:52.156Z,38.13
2023-04-13T21:55:53.620Z,44.83
2023-04-13T21:57:55.052Z,31.70
2023-04-13T21:59:56.542Z,33.75
2023-04-13T22:01:58.054Z,36.67
2023-04-13T22:03:59.646Z,39.53
2023-04-13T22:06:01.181Z,36.60
2023-04-13T22:08:03.263Z,44.25
2023-04-13T22:10:04.817Z,45.63
2023-04-13T22:12:06.239Z,38.97
2023-04-13T22:14:07.647Z,40.13
2023-04-13T22:16:09.289Z,36.38
2023-04-13T22:18:11.053Z,32.75
2023-04-13T22:20:12.674Z,42.10
2023-04-13T22:22:14.194Z,38.53
2023-04-13T22:24:16.169Z,34.15
2023-04-13T22:26:17.620Z,38.92
2023-04-13T22:28:19.139Z,40.65
2023-04-13T22:30:20.717Z,79.07
2023-04-13T22:32:22.257Z,105.03
2023-04-13T22:34:23.736Z,68.10
2023-04-13T22:36:25.198Z,64.30
2023-04-13T22:38:26.592Z,61.67
2023-04-13T22:40:27.997Z,44.42
2023-04-13T22:42:29.591Z,46.25
2023-04-13T22:44:37.062Z,42.03
2023-04-13T22:46:38.647Z,39.20
2023-04-13T22:48:40.348Z,38.75
2023-04-13T22:50:41.778Z,38.03
2023-04-13T22:52:43.158Z,45.72
2023-04-13T22:54:45.095Z,55.03
2023-04-13T22:56:47.046Z,43.88
2023-04-13T22:58:48.549Z,41.63
2023-04-13T23:00:49.969Z,42.28
2023-04-13T23:02:55.794Z,49.13
2023-04-13T23:04:57.716Z,52.83
2023-04-13T23:06:59.131Z,43.50
2023-04-13T23:09:01.001Z,51.05
2023-04-13T23:11:09.347Z,48.20
2023-04-13T23:13:10.967Z,43.17
2023-04-13T23:15:13.167Z,41.25
2023-04-13T23:17:14.612Z,40.72
2023-04-13T23:19:18.981Z,36.20
2023-04-13T23:21:20.470Z,35.95
2023-04-13T23:23:21.949Z,35.72
2023-04-13T23:25:23.648Z,34.95
2023-04-13T23:27:25.610Z,36.20
2023-04-13T23:29:27.105Z,35.20
2023-04-13T23:31:28.650Z,33.88
2023-04-13T23:33:30.063Z,37.67
2023-04-13T23:35:31.456Z,34.03
2023-04-13T23:37:32.853Z,33.95
2023-04-13T23:39:34.474Z,30.10
2023-04-13T23:41:35.873Z,30.83
2023-04-13T23:43:37.428Z,29.50
2023-04-13T23:45:39.246Z,30.00
2023-04-13T23:47:40.751Z,27.63
2023-04-13T23:49:42.426Z,30.10
2023-04-13T23:51:43.847Z,32.67
2023-04-13T23:53:45.311Z,32.80
2023-04-13T23:55:46.967Z,31.13
2023-04-13T23:57:48.360Z,28.63
2023-04-13T23:59:55.063Z,28.65
